Time;durP1;ratioP1;P1;durP2;ratioP2;P2;SDS_P1;SDS_P2;PMS_P1;PMS_P2;Temp;Humidity;BMP_temperature;BMP_pressure;BME280_temperature;BME280_humidity;BME280_pressure;Samples;Min_cycle;Max_cycle;Signal;HPM_P1;HPM_P2
2022/09/14 00:01:13;;;;;;;0.40;0.40;;;;;;;;;;4977559;28;20263;-83
2022/09/14 00:03:53;;;;;;;0.67;0.67;;;;;;;;;;4977386;28;20215;-83
2022/09/14 00:06:22;;;;;;;0.40;0.40;;;;;;;;;;4977636;28;20220;-83
2022/09/14 00:08:52;;;;;;;0.40;0.40;;;;;;;;;;4976920;28;20206;-83
2022/09/14 00:11:22;;;;;;;0.30;0.30;;;;;;;;;;4965742;28;20215;-83
2022/09/14 00:13:51;;;;;;;0.40;0.40;;;;;;;;;;4994591;28;20203;-82
2022/09/14 00:16:20;;;;;;;0.40;0.40;;;;;;;;;;4994400;28;20211;-83
2022/09/14 00:18:51;;;;;;;0.57;0.57;;;;;;;;;;4977318;28;20210;-82
2022/09/14 00:21:20;;;;;;;0.40;0.40;;;;;;;;;;4968426;28;20215;-82
2022/09/14 00:23:49;;;;;;;0.40;0.40;;;;;;;;;;4977040;28;20285;-83
2022/09/14 00:26:20;;;;;;;0.40;0.40;;;;;;;;;;4976928;28;20212;-82
2022/09/14 00:28:50;;;;;;;0.50;0.50;;;;;;;;;;4977488;28;20222;-83
2022/09/14 00:31:19;;;;;;;0.40;0.40;;;;;;;;;;4976700;28;20250;-82
2022/09/14 00:33:48;;;;;;;0.30;0.30;;;;;;;;;;4976970;28;20207;-82
2022/09/14 00:36:18;;;;;;;0.40;0.40;;;;;;;;;;4971282;28;20203;-82
2022/09/14 00:38:46;;;;;;;0.40;0.40;;;;;;;;;;4970302;28;20203;-83
2022/09/14 00:41:16;;;;;;;0.40;0.40;;;;;;;;;;4994050;28;20207;-83
2022/09/14 00:43:57;;;;;;;0.50;0.50;;;;;;;;;;4976729;28;20219;-83
2022/09/14 00:46:26;;;;;;;0.30;0.30;;;;;;;;;;4976776;28;20247;-82
2022/09/14 00:48:55;;;;;;;0.40;0.40;;;;;;;;;;4977101;28;20228;-82
2022/09/14 00:51:23;;;;;;;0.47;0.47;;;;;;;;;;4976550;28;20196;-82
2022/09/14 00:53:52;;;;;;;0.30;0.30;;;;;;;;;;4976812;28;20194;-82
2022/09/14 00:56:20;;;;;;;0.40;0.40;;;;;;;;;;4970461;28;20251;-83
2022/09/14 00:58:50;;;;;;;0.43;0.43;;;;;;;;;;4976657;28;20227;-82
2022/09/14 01:01:23;;;;;;;0.80;0.80;;;;;;;;;;4976357;28;20233;-82
2022/09/14 01:03:51;;;;;;;1.43;1.40;;;;;;;;;;4971040;28;20231;-82
2022/09/14 01:06:25;;;;;;;0.40;0.40;;;;;;;;;;4996118;28;20242;-83
2022/09/14 01:09:03;;;;;;;0.40;0.40;;;;;;;;;;4973553;28;20212;-82
2022/09/14 01:11:40;;;;;;;0.97;0.70;;;;;;;;;;4981957;28;20199;-82
2022/09/14 01:14:13;;;;;;;0.40;0.40;;;;;;;;;;4983303;28;20245;-82
2022/09/14 01:16:47;;;;;;;1.60;1.50;;;;;;;;;;4982841;28;20199;-82
2022/09/14 01:19:21;;;;;;;0.40;0.40;;;;;;;;;;4982524;28;20226;-82
2022/09/14 01:21:51;;;;;;;0.50;0.50;;;;;;;;;;4983086;28;20235;-82
2022/09/14 01:24:25;;;;;;;0.50;0.50;;;;;;;;;;4983090;28;20211;-84
2022/09/14 01:27:10;;;;;;;0.50;0.50;;;;;;;;;;4983208;28;20222;-85
2022/09/14 01:29:41;;;;;;;0.50;0.50;;;;;;;;;;4971007;28;20235;-85
2022/09/14 01:32:14;;;;;;;0.50;0.50;;;;;;;;;;4999954;28;20262;-84
2022/09/14 01:34:46;;;;;;;0.47;0.47;;;;;;;;;;4982854;28;20266;-84
2022/09/14 01:37:17;;;;;;;0.50;0.50;;;;;;;;;;5000006;28;20215;-84
2022/09/14 01:39:48;;;;;;;0.40;0.40;;;;;;;;;;5000255;28;20203;-84
2022/09/14 01:42:20;;;;;;;0.40;0.40;;;;;;;;;;5000113;28;20203;-84
2022/09/14 01:44:52;;;;;;;0.40;0.40;;;;;;;;;;4982493;28;20215;-85
2022/09/14 01:47:25;;;;;;;0.50;0.50;;;;;;;;;;5000054;28;20208;-84
2022/09/14 01:49:56;;;;;;;0.40;0.40;;;;;;;;;;4982742;28;20469;-84
2022/09/14 01:52:26;;;;;;;0.50;0.50;;;;;;;;;;4970107;28;20239;-84
2022/09/14 01:54:57;;;;;;;0.60;0.60;;;;;;;;;;4999945;28;20227;-82
2022/09/14 01:57:30;;;;;;;3.50;0.67;;;;;;;;;;5000175;28;20226;-82
2022/09/14 02:00:02;;;;;;;0.50;0.50;;;;;;;;;;4999928;28;20226;-82
2022/09/14 02:02:32;;;;;;;0.50;0.50;;;;;;;;;;4982916;28;20230;-83
2022/09/14 02:05:04;;;;;;;1.20;1.10;;;;;;;;;;5000121;28;20204;-82
2022/09/14 02:07:33;;;;;;;1.83;1.83;;;;;;;;;;4999339;28;20271;-82
2022/09/14 02:10:02;;;;;;;0.40;0.40;;;;;;;;;;4982299;28;20202;-83
2022/09/14 02:12:32;;;;;;;0.40;0.40;;;;;;;;;;4982479;28;20199;-82
2022/09/14 02:15:00;;;;;;;0.40;0.40;;;;;;;;;;4967788;28;20222;-83
2022/09/14 02:17:30;;;;;;;0.50;0.50;;;;;;;;;;4979387;28;20253;-82
2022/09/14 02:19:59;;;;;;;0.40;0.40;;;;;;;;;;4968290;28;20258;-83
2022/09/14 02:22:29;;;;;;;0.50;0.50;;;;;;;;;;4979315;28;20221;-82
2022/09/14 02:24:58;;;;;;;0.40;0.40;;;;;;;;;;4979290;28;20206;-83
2022/09/14 02:27:26;;;;;;;0.40;0.40;;;;;;;;;;4978950;28;20202;-83
2022/09/14 02:29:57;;;;;;;0.40;0.40;;;;;;;;;;4979294;28;20231;-82
2022/09/14 02:32:31;;;;;;;0.40;0.40;;;;;;;;;;4978870;28;20202;-82
2022/09/14 02:35:06;;;;;;;1.63;1.63;;;;;;;;;;4979148;28;20250;-83
2022/09/14 02:37:45;;;;;;;0.53;0.53;;;;;;;;;;4979094;28;20258;-82
2022/09/14 02:40:17;;;;;;;0.80;0.80;;;;;;;;;;4979114;28;20212;-82
2022/09/14 02:42:53;;;;;;;0.40;0.40;;;;;;;;;;4978726;28;20195;-82
2022/09/14 02:45:28;;;;;;;0.50;0.50;;;;;;;;;;4979310;28;20261;-82
2022/09/14 02:48:01;;;;;;;0.40;0.40;;;;;;;;;;4969042;28;20265;-82
2022/09/14 02:50:34;;;;;;;0.50;0.50;;;;;;;;;;4964652;28;20231;-83
2022/09/14 02:53:07;;;;;;;0.67;0.67;;;;;;;;;;4978949;28;20246;-82
2022/09/14 02:55:37;;;;;;;0.57;0.57;;;;;;;;;;4995906;28;20201;-83
2022/09/14 02:58:06;;;;;;;0.40;0.40;;;;;;;;;;4978532;28;20242;-84
2022/09/14 03:00:37;;;;;;;0.40;0.40;;;;;;;;;;4996369;28;20299;-83
2022/09/14 03:03:06;;;;;;;0.40;0.40;;;;;;;;;;4995871;28;20218;-83
2022/09/14 03:05:35;;;;;;;0.47;0.47;;;;;;;;;;4978904;28;20208;-83
2022/09/14 03:08:04;;;;;;;0.40;0.40;;;;;;;;;;4978344;28;20263;-83
2022/09/14 03:10:32;;;;;;;0.40;0.40;;;;;;;;;;4978624;28;20238;-83
2022/09/14 03:13:01;;;;;;;0.40;0.40;;;;;;;;;;4962661;28;20208;-83
2022/09/14 03:15:29;;;;;;;0.40;0.40;;;;;;;;;;4970168;28;20287;-83
2022/09/14 03:17:59;;;;;;;0.40;0.40;;;;;;;;;;4978394;28;20202;-83
2022/09/14 03:20:29;;;;;;;0.80;0.80;;;;;;;;;;4978469;28;20235;-83
2022/09/14 03:22:59;;;;;;;0.40;0.40;;;;;;;;;;4978084;28;20232;-83
2022/09/14 03:25:27;;;;;;;0.40;0.40;;;;;;;;;;4995586;28;20311;-83
2022/09/14 03:27:56;;;;;;;0.40;0.40;;;;;;;;;;4977971;28;20285;-82
2022/09/14 03:30:25;;;;;;;0.40;0.40;;;;;;;;;;4978371;28;20231;-83
2022/09/14 03:32:55;;;;;;;0.93;0.93;;;;;;;;;;4995190;28;20239;-83
2022/09/14 03:35:24;;;;;;;0.40;0.40;;;;;;;;;;4978503;28;20204;-83
2022/09/14 03:37:53;;;;;;;0.40;0.40;;;;;;;;;;4978040;28;20207;-82
2022/09/14 03:40:21;;;;;;;0.50;0.50;;;;;;;;;;4978218;28;20298;-83
2022/09/14 03:42:50;;;;;;;4.23;1.90;;;;;;;;;;4977958;28;20214;-83
2022/09/14 03:45:20;;;;;;;0.40;0.40;;;;;;;;;;4977900;28;20208;-83
2022/09/14 03:47:48;;;;;;;0.40;0.40;;;;;;;;;;4995128;28;20223;-83
2022/09/14 03:50:17;;;;;;;0.40;0.40;;;;;;;;;;4977949;28;20211;-83
2022/09/14 03:52:48;;;;;;;0.40;0.40;;;;;;;;;;4977653;28;20227;-83
2022/09/14 03:55:18;;;;;;;4.23;1.20;;;;;;;;;;4995205;28;20326;-83
2022/09/14 03:57:46;;;;;;;0.40;0.40;;;;;;;;;;4977328;28;20213;-83
2022/09/14 04:00:14;;;;;;;0.40;0.40;;;;;;;;;;4994827;28;20234;-83
2022/09/14 04:02:44;;;;;;;0.40;0.40;;;;;;;;;;4977550;28;20239;-83
2022/09/14 04:05:12;;;;;;;1.00;1.00;;;;;;;;;;4994514;28;20211;-83
2022/09/14 04:07:41;;;;;;;0.40;0.40;;;;;;;;;;4977146;28;20271;-83
2022/09/14 04:10:11;;;;;;;0.53;0.53;;;;;;;;;;4994682;28;20258;-83
2022/09/14 04:12:40;;;;;;;0.40;0.40;;;;;;;;;;4977152;28;20211;-83
2022/09/14 04:15:09;;;;;;;0.40;0.40;;;;;;;;;;4965596;28;20279;-83
2022/09/14 04:17:39;;;;;;;2.00;2.00;;;;;;;;;;4977625;28;20226;-83
2022/09/14 04:20:08;;;;;;;0.50;0.50;;;;;;;;;;4994542;28;20234;-83
2022/09/14 04:22:36;;;;;;;0.40;0.40;;;;;;;;;;4977031;28;20232;-83
2022/09/14 04:25:05;;;;;;;0.50;0.50;;;;;;;;;;4976687;28;20231;-83
2022/09/14 04:27:34;;;;;;;0.63;0.60;;;;;;;;;;4976824;28;20228;-83
2022/09/14 04:30:03;;;;;;;1.03;1.03;;;;;;;;;;4977229;28;20231;-83
2022/09/14 04:32:31;;;;;;;5.60;0.70;;;;;;;;;;4963698;28;20283;-82
2022/09/14 04:35:02;;;;;;;0.60;0.60;;;;;;;;;;4994626;28;20207;-83
2022/09/14 04:37:31;;;;;;;0.50;0.50;;;;;;;;;;4976966;28;20196;-83
2022/09/14 04:40:00;;;;;;;0.67;0.67;;;;;;;;;;4976374;28;20203;-83
2022/09/14 04:42:30;;;;;;;0.60;0.60;;;;;;;;;;4970863;28;20240;-83
2022/09/14 04:45:00;;;;;;;0.73;0.73;;;;;;;;;;4987635;28;20241;-83
2022/09/14 04:47:29;;;;;;;0.97;0.97;;;;;;;;;;4977024;28;20311;-83
2022/09/14 04:49:58;;;;;;;0.50;0.50;;;;;;;;;;4988638;28;20231;-83
2022/09/14 04:52:26;;;;;;;0.60;0.60;;;;;;;;;;4976838;28;20299;-83
2022/09/14 04:54:54;;;;;;;0.40;0.40;;;;;;;;;;4993893;28;20251;-83
2022/09/14 04:57:23;;;;;;;0.57;0.57;;;;;;;;;;4994207;28;20218;-83
2022/09/14 04:59:51;;;;;;;0.40;0.40;;;;;;;;;;4976587;28;20199;-83
2022/09/14 05:02:21;;;;;;;0.43;0.43;;;;;;;;;;4976948;28;20243;-83
2022/09/14 05:04:49;;;;;;;1.00;1.00;;;;;;;;;;4993942;28;20208;-83
2022/09/14 05:07:18;;;;;;;0.90;0.90;;;;;;;;;;4976255;28;20308;-83
2022/09/14 05:09:46;;;;;;;8.40;1.03;;;;;;;;;;4976441;28;20196;-83
2022/09/14 05:12:14;;;;;;;0.40;0.40;;;;;;;;;;4977096;28;20232;-83
2022/09/14 05:14:43;;;;;;;0.50;0.50;;;;;;;;;;4993394;28;20224;-83
2022/09/14 05:17:11;;;;;;;0.40;0.40;;;;;;;;;;4976587;28;20204;-83
2022/09/14 05:19:41;;;;;;;0.40;0.40;;;;;;;;;;4993263;28;20207;-83
2022/09/14 05:22:09;;;;;;;0.40;0.40;;;;;;;;;;4976773;28;20193;-84
2022/09/14 05:24:37;;;;;;;0.30;0.30;;;;;;;;;;4976126;28;20285;-83
2022/09/14 05:27:06;;;;;;;0.40;0.40;;;;;;;;;;4993786;28;20306;-84
2022/09/14 05:29:35;;;;;;;0.40;0.40;;;;;;;;;;4963580;28;20291;-81
2022/09/14 05:32:03;;;;;;;0.40;0.40;;;;;;;;;;4963431;28;20235;-81
2022/09/14 05:34:32;;;;;;;0.40;0.40;;;;;;;;;;4963473;28;20219;-80
2022/09/14 05:37:01;;;;;;;0.40;0.40;;;;;;;;;;4976072;28;20200;-81
2022/09/14 05:39:30;;;;;;;0.70;0.70;;;;;;;;;;4968364;28;20238;-80
2022/09/14 05:41:58;;;;;;;0.40;0.40;;;;;;;;;;4987573;28;20339;-81
2022/09/14 05:44:27;;;;;;;0.40;0.40;;;;;;;;;;4976107;28;20204;-80
2022/09/14 05:46:55;;;;;;;0.73;0.73;;;;;;;;;;4975821;28;20223;-81
2022/09/14 05:49:24;;;;;;;0.40;0.40;;;;;;;;;;4975928;28;20278;-80
2022/09/14 05:51:52;;;;;;;0.40;0.40;;;;;;;;;;4978571;28;20204;-81
2022/09/14 05:54:22;;;;;;;0.83;0.83;;;;;;;;;;4979856;28;20231;-80
2022/09/14 05:56:50;;;;;;;0.40;0.40;;;;;;;;;;4984703;28;20192;-80
2022/09/14 05:59:19;;;;;;;0.30;0.30;;;;;;;;;;4979492;28;20254;-81
2022/09/14 06:01:47;;;;;;;0.40;0.40;;;;;;;;;;4979189;28;20294;-84
2022/09/14 06:04:15;;;;;;;0.40;0.40;;;;;;;;;;4978723;28;20203;-83
2022/09/14 06:06:44;;;;;;;0.40;0.40;;;;;;;;;;4979495;28;20314;-84
2022/09/14 06:09:33;;;;;;;0.40;0.40;;;;;;;;;;4997075;28;20224;-84
2022/09/14 06:12:02;;;;;;;0.40;0.40;;;;;;;;;;4979538;28;20212;-84
2022/09/14 06:14:30;;;;;;;0.73;0.60;;;;;;;;;;4967470;28;20224;-84
2022/09/14 06:16:59;;;;;;;2.07;1.47;;;;;;;;;;4996571;28;20259;-85
2022/09/14 06:19:27;;;;;;;1.27;1.27;;;;;;;;;;4979735;28;20231;-84
2022/09/14 06:21:55;;;;;;;0.70;0.70;;;;;;;;;;4979962;28;20215;-85
2022/09/14 06:24:27;;;;;;;0.43;0.43;;;;;;;;;;4979999;28;20197;-84
2022/09/14 06:26:59;;;;;;;0.60;0.60;;;;;;;;;;4979998;28;20292;-84
2022/09/14 06:29:27;;;;;;;0.40;0.40;;;;;;;;;;4979421;28;20211;-84
2022/09/14 06:31:55;;;;;;;0.50;0.50;;;;;;;;;;4979988;28;20295;-84
2022/09/14 06:34:24;;;;;;;0.60;0.60;;;;;;;;;;4979921;28;20199;-84
2022/09/14 06:36:52;;;;;;;0.77;0.77;;;;;;;;;;4979981;28;20212;-84
2022/09/14 06:39:21;;;;;;;0.70;0.70;;;;;;;;;;4973767;28;20235;-84
2022/09/14 06:41:50;;;;;;;0.70;0.70;;;;;;;;;;4990728;28;20201;-85
2022/09/14 06:44:20;;;;;;;0.50;0.50;;;;;;;;;;4983260;28;20195;-84
2022/09/14 06:46:48;;;;;;;0.40;0.40;;;;;;;;;;4978940;28;20223;-84
2022/09/14 06:49:21;;;;;;;0.53;0.53;;;;;;;;;;4978813;28;20215;-85
2022/09/14 06:51:50;;;;;;;0.40;0.40;;;;;;;;;;4979122;28;20192;-86
2022/09/14 06:54:20;;;;;;;6.43;0.83;;;;;;;;;;4978645;28;20192;-86
2022/09/14 06:56:49;;;;;;;0.40;0.40;;;;;;;;;;4966612;28;20205;-85
2022/09/14 06:59:18;;;;;;;0.90;0.90;;;;;;;;;;4979164;28;20202;-85
2022/09/14 07:01:48;;;;;;;0.40;0.40;;;;;;;;;;4979114;28;20239;-85
2022/09/14 07:04:17;;;;;;;0.40;0.40;;;;;;;;;;4978866;28;20223;-86
2022/09/14 07:06:46;;;;;;;7.60;1.07;;;;;;;;;;4979214;28;20382;-86
2022/09/14 07:09:19;;;;;;;1.87;1.77;;;;;;;;;;4976391;28;20236;-83
2022/09/14 07:11:57;;;;;;;0.50;0.50;;;;;;;;;;4967907;28;20201;-83
2022/09/14 07:14:25;;;;;;;0.70;0.70;;;;;;;;;;4968069;28;20215;-84
2022/09/14 07:17:01;;;;;;;0.50;0.50;;;;;;;;;;4959005;28;20210;-84
2022/09/14 07:19:31;;;;;;;0.40;0.40;;;;;;;;;;4969298;28;20219;-84
2022/09/14 07:22:01;;;;;;;0.40;0.40;;;;;;;;;;4970184;28;20217;-85
2022/09/14 07:24:30;;;;;;;0.43;0.43;;;;;;;;;;4984087;28;20223;-83
2022/09/14 07:26:58;;;;;;;0.97;0.97;;;;;;;;;;4984975;28;20201;-84
2022/09/14 07:29:27;;;;;;;0.77;0.77;;;;;;;;;;4966187;28;20570;-84
2022/09/14 07:31:55;;;;;;;0.70;0.70;;;;;;;;;;4984243;28;20228;-85
2022/09/14 07:34:27;;;;;;;1.07;1.07;;;;;;;;;;4978332;28;20256;-84
2022/09/14 07:36:57;;;;;;;0.30;0.30;;;;;;;;;;4975276;28;20205;-84
2022/09/14 07:39:25;;;;;;;0.40;0.40;;;;;;;;;;4966372;28;20205;-84
2022/09/14 07:41:54;;;;;;;0.47;0.47;;;;;;;;;;4968213;28;20209;-84
2022/09/14 07:44:22;;;;;;;0.60;0.60;;;;;;;;;;4968222;28;20206;-84
2022/09/14 07:46:52;;;;;;;0.40;0.40;;;;;;;;;;4960645;28;20327;-83
2022/09/14 07:49:21;;;;;;;0.30;0.30;;;;;;;;;;4967148;28;20221;-84
2022/09/14 07:51:53;;;;;;;0.40;0.40;;;;;;;;;;4963353;28;20218;-85
2022/09/14 07:54:22;;;;;;;0.63;0.63;;;;;;;;;;4974988;28;20246;-83
2022/09/14 07:56:52;;;;;;;0.83;0.83;;;;;;;;;;4970630;28;20200;-83
2022/09/14 07:59:21;;;;;;;0.40;0.40;;;;;;;;;;4968080;28;20208;-82
2022/09/14 08:02:07;;;;;;;1.10;1.07;;;;;;;;;;4970410;28;20227;-84
2022/09/14 08:04:38;;;;;;;1.37;1.30;;;;;;;;;;4986580;28;20220;-84
2022/09/14 08:07:08;;;;;;;3.80;1.87;;;;;;;;;;4958362;28;20260;-85
2022/09/14 08:09:38;;;;;;;0.63;0.63;;;;;;;;;;4976428;28;20232;-83
2022/09/14 08:12:06;;;;;;;0.40;0.40;;;;;;;;;;4966661;28;20251;-82
2022/09/14 08:14:36;;;;;;;1.97;1.30;;;;;;;;;;4971618;28;20220;-84
2022/09/14 08:17:04;;;;;;;0.40;0.40;;;;;;;;;;4964357;28;20215;-83
2022/09/14 08:19:33;;;;;;;0.33;0.33;;;;;;;;;;4968758;28;20234;-82
2022/09/14 08:22:01;;;;;;;0.50;0.50;;;;;;;;;;4964942;28;20236;-83
2022/09/14 08:24:32;;;;;;;0.80;0.80;;;;;;;;;;4967950;28;20205;-82
2022/09/14 08:27:00;;;;;;;1.50;1.40;;;;;;;;;;4983640;28;20197;-84
2022/09/14 08:29:29;;;;;;;0.53;0.53;;;;;;;;;;4967353;28;20291;-82
2022/09/14 08:31:58;;;;;;;0.40;0.40;;;;;;;;;;4981152;28;20211;-84
2022/09/14 08:34:30;;;;;;;0.40;0.40;;;;;;;;;;4968477;28;20220;-84
2022/09/14 08:36:58;;;;;;;2.00;2.00;;;;;;;;;;4967059;28;20216;-83
2022/09/14 08:39:27;;;;;;;0.50;0.50;;;;;;;;;;4970261;28;20204;-82
2022/09/14 08:41:58;;;;;;;0.73;0.73;;;;;;;;;;4966405;28;20205;-85
2022/09/14 08:44:29;;;;;;;0.63;0.50;;;;;;;;;;4970570;28;20212;-85
2022/09/14 08:47:00;;;;;;;2.33;1.37;;;;;;;;;;4966392;28;20216;-85
2022/09/14 08:49:43;;;;;;;1.17;0.50;;;;;;;;;;4965775;28;20221;-85
2022/09/14 08:52:18;;;;;;;0.67;0.67;;;;;;;;;;4965150;28;20232;-83
2022/09/14 08:54:52;;;;;;;0.30;0.30;;;;;;;;;;4977270;28;20213;-84
2022/09/14 08:57:25;;;;;;;0.40;0.40;;;;;;;;;;4971733;28;20206;-85
2022/09/14 09:00:00;;;;;;;1.33;0.70;;;;;;;;;;4969787;28;20196;-87
2022/09/14 09:02:37;;;;;;;1.00;0.90;;;;;;;;;;4966923;28;20258;-86
2022/09/14 09:05:14;;;;;;;2.00;0.77;;;;;;;;;;4977165;28;20245;-84
2022/09/14 09:07:47;;;;;;;0.30;0.30;;;;;;;;;;4966017;28;22030;-85
2022/09/14 09:10:18;;;;;;;0.40;0.40;;;;;;;;;;4968710;28;20313;-85
2022/09/14 09:12:51;;;;;;;0.40;0.40;;;;;;;;;;4983673;28;20206;-85
2022/09/14 09:15:22;;;;;;;0.60;0.60;;;;;;;;;;4966943;28;20199;-84
2022/09/14 09:17:55;;;;;;;3.63;0.70;;;;;;;;;;4955254;28;20201;-84
2022/09/14 09:20:27;;;;;;;0.80;0.80;;;;;;;;;;4962764;28;20265;-84
2022/09/14 09:23:01;;;;;;;0.57;0.57;;;;;;;;;;4984435;28;20217;-84
2022/09/14 09:25:32;;;;;;;0.77;0.50;;;;;;;;;;4985782;28;20218;-85
2022/09/14 09:28:10;;;;;;;0.70;0.70;;;;;;;;;;4969230;28;20205;-85
2022/09/14 09:30:40;;;;;;;0.70;0.40;;;;;;;;;;4958857;28;20219;-84
2022/09/14 09:33:14;;;;;;;0.93;0.57;;;;;;;;;;4985504;28;20293;-84
2022/09/14 09:35:43;;;;;;;0.50;0.40;;;;;;;;;;4972336;28;20339;-84
2022/09/14 09:38:14;;;;;;;0.30;0.30;;;;;;;;;;4971254;28;20203;-84
2022/09/14 09:40:45;;;;;;;0.70;0.70;;;;;;;;;;4973408;28;20221;-85
2022/09/14 09:43:17;;;;;;;3.20;0.97;;;;;;;;;;4965958;28;20202;-84
2022/09/14 09:46:07;;;;;;;0.47;0.47;;;;;;;;;;4968941;28;20207;-85
2022/09/14 09:48:40;;;;;;;3.80;0.80;;;;;;;;;;4982515;28;20211;-85
2022/09/14 09:51:11;;;;;;;0.40;0.40;;;;;;;;;;4988838;28;20211;-85
2022/09/14 09:53:47;;;;;;;0.40;0.40;;;;;;;;;;4981109;28;20207;-85
2022/09/14 09:56:20;;;;;;;0.97;0.60;;;;;;;;;;4987749;28;20203;-86
2022/09/14 09:58:51;;;;;;;0.73;0.70;;;;;;;;;;4966658;28;20206;-85
2022/09/14 10:01:21;;;;;;;0.40;0.40;;;;;;;;;;4969593;28;20229;-85
2022/09/14 10:04:05;;;;;;;1.50;0.70;;;;;;;;;;4987193;28;20232;-85
2022/09/14 10:06:42;;;;;;;2.83;1.00;;;;;;;;;;4973996;28;20206;-85
2022/09/14 10:09:15;;;;;;;1.77;0.80;;;;;;;;;;4967567;28;20208;-85
2022/09/14 10:11:44;;;;;;;4.83;0.80;;;;;;;;;;5000570;28;20212;-86
2022/09/14 10:14:39;;;;;;;0.50;0.50;;;;;;;;;;4974406;28;20201;-86
2022/09/14 10:17:17;;;;;;;1.70;1.70;;;;;;;;;;4962878;28;20205;-85
2022/09/14 10:19:48;;;;;;;0.50;0.50;;;;;;;;;;4989068;28;20275;-85
2022/09/14 10:22:19;;;;;;;1.60;1.17;;;;;;;;;;4974755;28;20264;-85
2022/09/14 10:24:57;;;;;;;0.50;0.50;;;;;;;;;;4975854;28;20297;-85
2022/09/14 10:27:31;;;;;;;0.73;0.73;;;;;;;;;;4969020;28;20285;-85
2022/09/14 10:30:06;;;;;;;0.63;0.63;;;;;;;;;;4968031;28;20236;-85
2022/09/14 10:32:37;;;;;;;0.60;0.60;;;;;;;;;;4965789;28;20209;-85
2022/09/14 10:35:12;;;;;;;0.40;0.40;;;;;;;;;;4978822;28;20207;-84
2022/09/14 10:37:46;;;;;;;0.50;0.50;;;;;;;;;;4986524;28;20284;-84
2022/09/14 10:40:17;;;;;;;1.40;0.63;;;;;;;;;;4979912;28;20205;-84
2022/09/14 10:42:52;;;;;;;0.40;0.40;;;;;;;;;;4972625;28;20208;-84
2022/09/14 10:45:24;;;;;;;2.40;0.67;;;;;;;;;;4969512;28;20219;-85
2022/09/14 10:48:05;;;;;;;0.40;0.40;;;;;;;;;;4986713;28;20213;-85
2022/09/14 10:50:40;;;;;;;0.60;0.60;;;;;;;;;;4984133;28;20247;-85
2022/09/14 10:53:14;;;;;;;0.87;0.67;;;;;;;;;;4982487;28;20301;-85
2022/09/14 10:55:47;;;;;;;0.63;0.63;;;;;;;;;;4978058;28;20203;-85
2022/09/14 10:58:24;;;;;;;2.33;0.87;;;;;;;;;;4964059;28;20301;-85
2022/09/14 11:00:58;;;;;;;0.33;0.33;;;;;;;;;;4965775;28;20229;-85
2022/09/14 11:03:35;;;;;;;0.57;0.57;;;;;;;;;;4971038;28;20200;-85
2022/09/14 11:06:08;;;;;;;0.60;0.60;;;;;;;;;;4965350;28;20203;-85
2022/09/14 11:08:41;;;;;;;0.50;0.50;;;;;;;;;;4965082;28;20261;-84
2022/09/14 11:11:21;;;;;;;0.53;0.53;;;;;;;;;;4965164;28;20219;-84
2022/09/14 11:14:00;;;;;;;3.20;1.03;;;;;;;;;;4968616;28;20196;-84
2022/09/14 11:16:37;;;;;;;1.53;0.70;;;;;;;;;;4971726;28;20210;-84
2022/09/14 11:19:11;;;;;;;0.93;0.70;;;;;;;;;;4969123;28;20213;-84
2022/09/14 11:21:44;;;;;;;0.30;0.30;;;;;;;;;;4988081;28;20212;-84
2022/09/14 11:24:18;;;;;;;0.93;0.50;;;;;;;;;;4975727;28;20228;-84
2022/09/14 11:26:50;;;;;;;0.50;0.50;;;;;;;;;;4965858;28;20254;-84
2022/09/14 11:29:23;;;;;;;3.83;0.80;;;;;;;;;;4984817;28;20298;-84
2022/09/14 11:31:53;;;;;;;0.60;0.60;;;;;;;;;;4965781;28;20302;-84
2022/09/14 11:34:46;;;;;;;2.93;1.37;;;;;;;;;;4974264;28;20200;-84
2022/09/14 11:37:16;;;;;;;0.50;0.50;;;;;;;;;;4967867;28;20213;-84
2022/09/14 11:39:47;;;;;;;3.80;1.00;;;;;;;;;;4968993;28;20236;-84
2022/09/14 11:42:19;;;;;;;0.60;0.53;;;;;;;;;;4966785;28;20215;-83
2022/09/14 11:44:49;;;;;;;1.57;1.47;;;;;;;;;;4969719;28;20204;-84
2022/09/14 11:47:18;;;;;;;3.20;1.13;;;;;;;;;;4967699;28;20225;-84
2022/09/14 11:49:56;;;;;;;2.50;1.20;;;;;;;;;;4982511;28;20300;-84
2022/09/14 11:52:26;;;;;;;5.30;1.17;;;;;;;;;;4977118;28;20210;-84
2022/09/14 11:54:55;;;;;;;0.50;0.50;;;;;;;;;;4967553;28;20200;-84
2022/09/14 11:57:25;;;;;;;1.17;1.07;;;;;;;;;;4970581;28;20219;-84
2022/09/14 11:59:55;;;;;;;0.57;0.57;;;;;;;;;;4966058;28;20201;-83
2022/09/14 12:02:54;;;;;;;2.13;0.87;;;;;;;;;;4969279;28;20228;-84
2022/09/14 12:05:35;;;;;;;0.57;0.57;;;;;;;;;;4967235;28;20212;-84
2022/09/14 12:08:07;;;;;;;0.33;0.33;;;;;;;;;;4985337;28;20242;-83
2022/09/14 12:10:51;;;;;;;0.30;0.30;;;;;;;;;;4964183;28;20312;-84
2022/09/14 12:13:20;;;;;;;0.73;0.70;;;;;;;;;;4966185;28;20211;-84
2022/09/14 12:15:59;;;;;;;0.33;0.33;;;;;;;;;;4967949;28;20228;-84
2022/09/14 12:18:28;;;;;;;0.33;0.33;;;;;;;;;;4966723;28;20335;-84
2022/09/14 12:21:06;;;;;;;0.30;0.30;;;;;;;;;;4962337;28;20202;-83
2022/09/14 12:23:43;;;;;;;0.30;0.30;;;;;;;;;;4959907;28;20209;-84
2022/09/14 12:26:29;;;;;;;1.20;0.87;;;;;;;;;;4966608;28;20210;-83
2022/09/14 12:29:01;;;;;;;0.30;0.30;;;;;;;;;;4967988;28;20234;-84
2022/09/14 12:31:58;;;;;;;0.40;0.40;;;;;;;;;;4957561;28;20228;-83
2022/09/14 12:34:30;;;;;;;0.30;0.30;;;;;;;;;;4983604;28;20218;-84
2022/09/14 12:37:04;;;;;;;1.10;0.50;;;;;;;;;;4971194;28;20293;-84
2022/09/14 12:39:39;;;;;;;0.30;0.30;;;;;;;;;;4960774;28;20206;-83
2022/09/14 12:42:35;;;;;;;0.30;0.30;;;;;;;;;;4965438;28;20202;-84
2022/09/14 12:45:18;;;;;;;2.13;1.67;;;;;;;;;;4951929;28;20228;-84
2022/09/14 12:47:51;;;;;;;0.33;0.33;;;;;;;;;;4973837;28;20211;-83
2022/09/14 12:50:21;;;;;;;0.50;0.50;;;;;;;;;;4977026;28;20234;-84
2022/09/14 12:52:58;;;;;;;0.83;0.40;;;;;;;;;;4990729;28;20207;-84
2022/09/14 12:55:43;;;;;;;0.43;0.43;;;;;;;;;;4982018;28;20199;-85
2022/09/14 12:58:18;;;;;;;0.30;0.30;;;;;;;;;;4977179;28;20222;-85
2022/09/14 13:00:52;;;;;;;0.80;0.80;;;;;;;;;;4975710;28;20224;-84
2022/09/14 13:03:26;;;;;;;0.30;0.30;;;;;;;;;;4968015;28;20201;-83
2022/09/14 13:05:55;;;;;;;1.47;0.60;;;;;;;;;;4969268;28;20203;-84
2022/09/14 13:08:25;;;;;;;0.40;0.40;;;;;;;;;;4963287;28;20330;-84
2022/09/14 13:10:54;;;;;;;0.67;0.67;;;;;;;;;;4966182;28;20213;-84
2022/09/14 13:13:24;;;;;;;0.97;0.80;;;;;;;;;;4981416;28;20195;-83
2022/09/14 13:15:54;;;;;;;1.70;0.47;;;;;;;;;;4965343;28;20203;-84
2022/09/14 13:18:29;;;;;;;1.70;1.00;;;;;;;;;;4966098;28;20205;-84
2022/09/14 13:20:58;;;;;;;0.40;0.37;;;;;;;;;;4969454;28;20200;-84
2022/09/14 13:23:30;;;;;;;1.73;0.90;;;;;;;;;;4967620;28;20200;-84
2022/09/14 13:25:59;;;;;;;0.67;0.67;;;;;;;;;;4962468;28;20216;-84
2022/09/14 13:28:31;;;;;;;1.13;0.60;;;;;;;;;;4986687;28;20208;-84
2022/09/14 13:31:00;;;;;;;9.97;0.80;;;;;;;;;;4965800;28;20218;-84
2022/09/14 13:33:29;;;;;;;0.70;0.50;;;;;;;;;;4963588;28;20295;-83
2022/09/14 13:35:59;;;;;;;0.93;0.47;;;;;;;;;;4968508;28;20211;-83
2022/09/14 13:38:30;;;;;;;2.13;0.70;;;;;;;;;;4968325;28;20209;-83
2022/09/14 13:41:05;;;;;;;1.33;0.63;;;;;;;;;;4967513;28;20205;-83
2022/09/14 13:43:34;;;;;;;1.90;1.13;;;;;;;;;;4958838;28;20305;-83
2022/09/14 13:46:06;;;;;;;1.60;1.50;;;;;;;;;;4965362;28;20209;-83
2022/09/14 13:48:36;;;;;;;3.73;0.60;;;;;;;;;;4975271;28;20197;-83
2022/09/14 13:51:05;;;;;;;0.67;0.67;;;;;;;;;;4963616;28;20239;-83
2022/09/14 13:53:40;;;;;;;0.30;0.30;;;;;;;;;;4965409;28;20299;-83
2022/09/14 13:56:23;;;;;;;1.33;1.10;;;;;;;;;;4966667;28;20211;-83
2022/09/14 13:59:01;;;;;;;0.30;0.30;;;;;;;;;;4963347;28;20201;-83
2022/09/14 14:01:30;;;;;;;1.27;1.03;;;;;;;;;;4962819;28;20299;-83
2022/09/14 14:03:58;;;;;;;0.77;0.30;;;;;;;;;;4963418;28;20209;-83
2022/09/14 14:06:28;;;;;;;0.50;0.50;;;;;;;;;;4985687;28;20209;-83
2022/09/14 14:09:02;;;;;;;0.30;0.30;;;;;;;;;;4970467;28;20199;-82
2022/09/14 14:11:34;;;;;;;0.30;0.30;;;;;;;;;;4966067;28;20227;-83
2022/09/14 14:14:19;;;;;;;0.50;0.50;;;;;;;;;;4969693;28;20199;-83
2022/09/14 14:17:07;;;;;;;0.40;0.40;;;;;;;;;;4985416;28;20214;-83
2022/09/14 14:19:35;;;;;;;0.50;0.50;;;;;;;;;;4984500;28;20207;-83
2022/09/14 14:22:16;;;;;;;0.50;0.50;;;;;;;;;;4989844;28;20218;-83
2022/09/14 14:24:47;;;;;;;0.57;0.47;;;;;;;;;;4967061;28;20304;-83
2022/09/14 14:27:36;;;;;;;0.77;0.53;;;;;;;;;;4971697;28;20212;-83
2022/09/14 14:30:13;;;;;;;1.00;0.90;;;;;;;;;;4988199;28;20211;-83
2022/09/14 14:32:42;;;;;;;0.30;0.30;;;;;;;;;;4969070;28;20219;-83
2022/09/14 14:35:15;;;;;;;0.63;0.63;;;;;;;;;;4974073;28;20219;-83
2022/09/14 14:37:43;;;;;;;0.97;0.77;;;;;;;;;;4990823;28;20239;-83
2022/09/14 14:40:13;;;;;;;0.70;0.70;;;;;;;;;;4963962;28;20294;-83
2022/09/14 14:42:42;;;;;;;0.73;0.73;;;;;;;;;;4966427;28;20224;-83
2022/09/14 14:45:13;;;;;;;0.43;0.43;;;;;;;;;;4987933;28;20210;-84
2022/09/14 14:47:42;;;;;;;0.47;0.47;;;;;;;;;;4965800;28;20211;-84
2022/09/14 14:50:14;;;;;;;0.37;0.37;;;;;;;;;;4969417;28;20203;-83
2022/09/14 14:52:42;;;;;;;0.27;0.27;;;;;;;;;;4983837;28;20216;-83
2022/09/14 14:55:11;;;;;;;1.40;0.70;;;;;;;;;;4970881;28;20195;-84
2022/09/14 14:57:41;;;;;;;2.17;0.60;;;;;;;;;;4982121;28;20209;-84
2022/09/14 15:00:14;;;;;;;0.40;0.40;;;;;;;;;;4984005;28;20315;-83
2022/09/14 15:02:42;;;;;;;0.53;0.53;;;;;;;;;;4983589;28;20199;-83
2022/09/14 15:05:11;;;;;;;2.07;1.07;;;;;;;;;;4980208;28;20205;-84
2022/09/14 15:07:40;;;;;;;0.30;0.30;;;;;;;;;;4976652;28;20299;-81
2022/09/14 15:10:09;;;;;;;0.50;0.50;;;;;;;;;;4982396;28;20202;-82